Airport View

Enter AWOS ICAO identifier for current METAR.

ex. KFNL

KAST 181155Z AUTO 15009KT 10SM SCT035 BKN044 OVC060 07/04 A2996 RMK AO2 RAE40 CIG 036 RWY 08 SLP146 P0003 60006 70024 T00720039 10072 20050 58008

18 Jan 2020 12:08

Frequency: 135.375

Phone: 503-861-1371

Other Area AWOS: KKLS - KTMK - KCLS - KSPB

TAF KAST 181140Z 1812/1912 09005KT P6SM -RA OVC040 FM181400 20011G20KT P6SM -SHRA BKN015 OVC025 FM181800 18010KT P6SM VCSH OVC025 FM190000 17008KT P6SM SCT015 BKN025 FM191000 15007KT P6SM OVC020